createdAt,value
2022-11-28T00:07:56.122Z,43.90
2022-11-28T00:16:07.086Z,42.15
2022-11-28T00:24:12.825Z,39.53
2022-11-28T00:32:20.836Z,44.10
2022-11-28T00:40:26.345Z,44.35
2022-11-28T00:48:35.498Z,44.97
2022-11-28T00:56:42.814Z,45.83
2022-11-28T01:04:50.958Z,45.28
2022-11-28T01:12:56.321Z,39.53
2022-11-28T01:21:04.302Z,45.25
2022-11-28T01:29:10.524Z,38.85
2022-11-28T01:37:18.554Z,39.20
2022-11-28T01:45:26.359Z,42.17
2022-11-28T01:53:36.108Z,38.70
2022-11-28T02:01:42.397Z,40.33
2022-11-28T02:09:51.276Z,40.42
2022-11-28T02:18:08.752Z,41.95
2022-11-28T02:26:54.730Z,48.63
2022-11-28T02:35:13.794Z,39.20
2022-11-28T02:43:25.175Z,38.03
2022-11-28T02:51:39.258Z,31.88
2022-11-28T02:59:50.676Z,32.92
2022-11-28T03:08:08.929Z,34.92
2022-11-28T03:16:21.923Z,37.10
2022-11-28T03:24:38.132Z,33.17
2022-11-28T03:32:45.260Z,34.03
2022-11-28T03:40:56.581Z,33.05
2022-11-28T03:49:03.616Z,39.15
2022-11-28T03:57:17.744Z,37.78
2022-11-28T04:05:30.528Z,38.03
2022-11-28T04:13:43.589Z,45.13
2022-11-28T04:21:56.258Z,42.53
2022-11-28T04:30:06.256Z,47.85
2022-11-28T04:38:14.671Z,48.58
2022-11-28T04:46:27.869Z,43.03
2022-11-28T04:54:40.824Z,48.75
2022-11-28T05:02:52.513Z,49.07
2022-11-28T05:11:01.008Z,50.67
2022-11-28T05:19:09.160Z,58.63
2022-11-28T05:27:14.396Z,57.78
2022-11-28T05:35:23.926Z,44.83
2022-11-28T05:43:29.768Z,43.35
2022-11-28T05:51:38.299Z,39.15
2022-11-28T05:59:43.741Z,40.72
2022-11-28T06:07:52.164Z,38.15
2022-11-28T06:15:57.601Z,42.60
2022-11-28T06:24:06.005Z,44.53
2022-11-28T06:32:11.533Z,39.53
2022-11-28T06:40:24.761Z,42.10
2022-11-28T06:48:30.516Z,46.00
2022-11-28T06:56:40.005Z,43.92
2022-11-28T07:04:45.771Z,41.85
2022-11-28T07:12:56.671Z,44.35
2022-11-28T07:21:02.839Z,39.50
2022-11-28T07:29:12.913Z,43.55
2022-11-28T07:37:18.476Z,47.40
2022-11-28T07:45:37.047Z,40.00
2022-11-28T07:53:52.768Z,45.38
2022-11-28T08:02:00.720Z,36.22
2022-11-28T08:10:06.259Z,36.88
2022-11-28T08:18:14.507Z,33.10
2022-11-28T08:26:20.830Z,28.17
2022-11-28T08:34:28.723Z,27.38
2022-11-28T08:42:36.805Z,25.13
2022-11-28T08:50:49.376Z,24.08
2022-11-28T08:58:54.697Z,18.80
2022-11-28T09:07:02.649Z,22.65
2022-11-28T09:15:09.357Z,18.33
2022-11-28T09:23:17.383Z,16.70
2022-11-28T09:31:23.376Z,13.52
2022-11-28T09:39:44.060Z,14.85
2022-11-28T09:48:01.072Z,12.35
2022-11-28T09:56:15.270Z,17.55
2022-11-28T10:04:28.799Z,14.52
2022-11-28T10:20:48.637Z,14.88
2022-11-28T10:28:59.812Z,15.27
2022-11-28T10:37:09.794Z,18.65
2022-11-28T10:45:28.104Z,13.80
2022-11-28T10:53:46.601Z,14.90
2022-11-28T11:01:56.225Z,13.98
2022-11-28T11:10:15.011Z,15.68
2022-11-28T11:18:28.909Z,12.63
2022-11-28T11:34:51.818Z,12.00
2022-11-28T11:42:59.243Z,15.27
2022-11-28T11:51:07.537Z,12.93
2022-11-28T11:59:18.430Z,10.40
2022-11-28T12:07:32.794Z,9.77
2022-11-28T12:15:47.307Z,8.45
2022-11-28T12:24:11.635Z,9.07
2022-11-28T12:32:32.877Z,8.07
2022-11-28T12:40:53.368Z,10.18
2022-11-28T12:49:14.428Z,10.85
2022-11-28T12:57:28.241Z,12.45
2022-11-28T13:05:56.891Z,9.43
2022-11-28T13:14:11.568Z,9.15
2022-11-28T13:22:21.432Z,11.70
2022-11-28T13:30:31.600Z,10.32
2022-11-28T13:39:11.276Z,9.02
2022-11-28T13:47:31.282Z,10.55
2022-11-28T13:55:47.680Z,12.48
2022-11-28T14:04:07.394Z,17.13
2022-11-28T14:12:20.494Z,14.65
2022-11-28T14:20:41.014Z,14.32
2022-11-28T14:28:50.236Z,21.08
2022-11-28T14:37:59.642Z,21.45
2022-11-28T14:46:31.191Z,20.83
2022-11-28T14:54:41.359Z,27.30
2022-11-28T15:03:06.568Z,19.42
2022-11-28T15:11:46.214Z,21.13
2022-11-28T15:19:52.901Z,29.00
2022-11-28T15:28:00.824Z,28.60
2022-11-28T15:36:12.133Z,34.50
2022-11-28T15:44:20.369Z,29.55
2022-11-28T15:52:27.549Z,24.05
2022-11-28T16:00:36.029Z,26.17
2022-11-28T16:08:44.445Z,27.30
2022-11-28T16:16:52.577Z,20.48
2022-11-28T16:25:01.576Z,31.60
2022-11-28T16:33:38.698Z,31.30
2022-11-28T16:41:49.476Z,33.33
2022-11-28T16:50:23.199Z,23.05
2022-11-28T16:58:29.634Z,25.50
2022-11-28T17:06:39.719Z,22.85
2022-11-28T17:14:46.890Z,25.38
2022-11-28T17:22:56.675Z,21.52
2022-11-28T17:31:02.193Z,23.85
2022-11-28T17:39:10.520Z,29.45
2022-11-28T17:47:15.832Z,31.17
2022-11-28T17:55:25.729Z,29.95
2022-11-28T18:03:31.764Z,38.22
2022-11-28T18:11:40.445Z,45.92
2022-11-28T18:19:45.878Z,43.33
2022-11-28T18:27:55.815Z,41.47
2022-11-28T18:36:11.683Z,37.25
2022-11-28T18:44:20.074Z,38.33
2022-11-28T18:52:25.565Z,31.17
2022-11-28T19:00:34.641Z,30.88
2022-11-28T19:08:41.853Z,28.55
2022-11-28T19:16:54.233Z,31.05
2022-11-28T19:24:59.662Z,32.03
2022-11-28T19:33:08.409Z,41.95
2022-11-28T19:41:16.601Z,39.42
2022-11-28T19:49:28.831Z,48.53
2022-11-28T19:57:34.728Z,48.60
2022-11-28T20:05:44.139Z,45.20
2022-11-28T20:13:50.284Z,41.85
2022-11-28T20:22:01.309Z,36.67
2022-11-28T20:30:09.433Z,38.20
2022-11-28T20:38:18.802Z,45.88
2022-11-28T20:46:27.363Z,42.85
2022-11-28T21:37:34.742Z,40.85
2022-11-28T21:45:40.641Z,24.98
2022-11-28T21:53:50.424Z,29.98
2022-11-28T22:01:56.387Z,27.23
2022-11-28T22:10:07.188Z,40.60
2022-11-28T22:18:12.877Z,31.13
2022-11-28T22:26:21.455Z,30.65
2022-11-28T22:34:27.457Z,29.35
2022-11-28T22:42:35.639Z,30.83
2022-11-28T22:50:43.033Z,25.55
2022-11-28T22:58:51.835Z,29.65
2022-11-28T23:06:58.264Z,30.35
2022-11-28T23:15:06.566Z,27.38
2022-11-28T23:23:11.961Z,24.58
2022-11-28T23:31:21.949Z,19.83
2022-11-28T23:39:27.505Z,18.42
2022-11-28T23:47:44.374Z,17.58
2022-11-28T23:55:49.717Z,17.95
